createdAt,value
2019-02-06T00:00:47.318Z,12.33
2019-02-06T00:03:24.940Z,11.73
2019-02-06T00:05:55.578Z,11.33
2019-02-06T00:08:27.327Z,12.03
2019-02-06T00:10:58.134Z,11.83
2019-02-06T00:13:29.343Z,11.77
2019-02-06T00:16:00.450Z,10.97
2019-02-06T00:18:32.025Z,12.03
2019-02-06T00:21:02.601Z,11.30
2019-02-06T00:23:33.821Z,11.20
2019-02-06T00:26:05.218Z,11.43
2019-02-06T00:28:36.048Z,11.20
2019-02-06T00:31:06.887Z,10.63
2019-02-06T00:33:39.689Z,11.30
2019-02-06T00:36:10.381Z,10.40
2019-02-06T00:38:41.027Z,11.67
2019-02-06T00:41:13.215Z,10.80
2019-02-06T00:43:44.008Z,11.10
2019-02-06T00:46:15.591Z,11.13
2019-02-06T00:49:06.387Z,11.60
2019-02-06T00:51:37.095Z,10.63
2019-02-06T00:54:09.387Z,10.80
2019-02-06T00:56:40.029Z,11.40
2019-02-06T00:59:11.137Z,11.30
2019-02-06T01:01:41.907Z,11.00
2019-02-06T01:04:12.727Z,10.17
2019-02-06T01:06:43.727Z,10.20
2019-02-06T01:09:14.609Z,10.10
2019-02-06T01:11:45.024Z,10.83
2019-02-06T01:14:15.599Z,10.83
2019-02-06T01:16:46.701Z,11.30
2019-02-06T01:19:17.581Z,10.60
2019-02-06T01:21:48.789Z,9.63
2019-02-06T01:24:19.893Z,10.10
2019-02-06T01:26:50.388Z,10.27
2019-02-06T01:29:20.891Z,10.20
2019-02-06T01:31:53.389Z,10.50
2019-02-06T01:34:24.211Z,10.07
2019-02-06T01:36:55.807Z,10.90
2019-02-06T01:39:26.692Z,10.77
2019-02-06T01:41:57.290Z,10.80
2019-02-06T01:44:28.612Z,11.10
2019-02-06T01:46:59.484Z,10.43
2019-02-06T01:49:30.078Z,11.23
2019-02-06T01:52:01.615Z,10.90
2019-02-06T01:54:33.763Z,10.70
2019-02-06T01:57:04.771Z,11.40
2019-02-06T01:59:35.694Z,11.17
2019-02-06T02:02:07.102Z,11.50
2019-02-06T02:04:37.888Z,11.33
2019-02-06T02:07:08.659Z,11.27
2019-02-06T02:09:40.377Z,10.53
2019-02-06T02:12:11.310Z,10.00
2019-02-06T02:14:42.187Z,10.30
2019-02-06T02:17:13.750Z,10.60
2019-02-06T02:19:44.626Z,9.00
2019-02-06T02:22:14.896Z,10.70
2019-02-06T02:24:45.409Z,10.23
2019-02-06T02:27:16.291Z,10.10
2019-02-06T02:29:47.759Z,10.40
2019-02-06T02:32:18.611Z,9.90
2019-02-06T02:34:50.290Z,11.00
2019-02-06T02:37:22.750Z,10.47
2019-02-06T02:39:53.385Z,10.00
2019-02-06T02:42:24.449Z,10.27
2019-02-06T02:44:54.933Z,9.97
2019-02-06T02:47:25.905Z,9.60
2019-02-06T02:49:56.332Z,10.03
2019-02-06T02:52:27.319Z,10.83
2019-02-06T02:54:57.864Z,10.17
2019-02-06T02:57:28.904Z,9.87
2019-02-06T02:59:59.628Z,9.97
2019-02-06T03:02:44.731Z,9.87
2019-02-06T03:05:19.666Z,10.30
2019-02-06T03:07:50.732Z,10.53
2019-02-06T03:10:22.747Z,9.77
2019-02-06T03:12:53.250Z,9.50
2019-02-06T03:15:24.272Z,9.03
2019-02-06T03:17:55.175Z,9.60
2019-02-06T03:20:26.285Z,10.10
2019-02-06T03:22:57.304Z,10.03
2019-02-06T03:25:28.291Z,9.30
2019-02-06T03:27:59.104Z,8.77
2019-02-06T03:30:32.237Z,9.67
2019-02-06T03:33:02.998Z,10.30
2019-02-06T03:35:33.727Z,9.43
2019-02-06T03:38:04.613Z,8.63
2019-02-06T03:40:35.992Z,9.40
2019-02-06T03:43:06.669Z,9.43
2019-02-06T03:45:37.175Z,9.67
2019-02-06T03:48:07.577Z,9.20
2019-02-06T03:50:38.857Z,10.13
2019-02-06T03:53:10.734Z,7.67
2019-02-06T03:55:42.021Z,8.80
2019-02-06T03:58:12.576Z,8.53
2019-02-06T04:00:44.328Z,9.83
2019-02-06T04:03:14.951Z,9.10
2019-02-06T04:05:45.414Z,8.97
2019-02-06T04:08:15.832Z,9.80
2019-02-06T04:10:46.325Z,10.13
2019-02-06T04:13:16.864Z,10.03
2019-02-06T04:15:47.728Z,8.20
2019-02-06T04:18:18.498Z,10.70
2019-02-06T04:20:49.420Z,9.33
2019-02-06T04:23:20.459Z,9.10
2019-02-06T04:25:51.951Z,8.43
2019-02-06T04:28:22.531Z,9.07
2019-02-06T04:30:53.571Z,9.10
2019-02-06T04:33:24.599Z,10.03
2019-02-06T04:35:55.659Z,9.07
2019-02-06T04:38:25.977Z,9.00
2019-02-06T04:40:56.458Z,9.60
2019-02-06T04:43:27.341Z,9.00
2019-02-06T04:46:02.333Z,9.50
2019-02-06T04:48:32.861Z,10.20
2019-02-06T04:51:04.128Z,9.50
2019-02-06T04:53:35.054Z,9.13
2019-02-06T04:56:06.159Z,9.20
2019-02-06T04:58:37.732Z,9.17
2019-02-06T05:01:08.637Z,9.60
2019-02-06T05:03:39.146Z,10.10
2019-02-06T05:06:10.253Z,8.97
2019-02-06T05:08:41.343Z,9.30
2019-02-06T05:11:12.144Z,8.83
2019-02-06T05:13:42.566Z,8.33
2019-02-06T05:16:14.231Z,10.33
2019-02-06T05:18:44.924Z,10.03
2019-02-06T05:21:15.327Z,10.13
2019-02-06T05:23:47.128Z,9.80
2019-02-06T05:26:17.765Z,9.03
2019-02-06T05:28:48.652Z,9.40
2019-02-06T05:31:19.698Z,10.30
2019-02-06T05:33:50.460Z,9.40
2019-02-06T05:36:21.067Z,8.60
2019-02-06T05:38:51.702Z,10.10
2019-02-06T05:41:22.307Z,9.00
2019-02-06T05:43:53.786Z,9.90
2019-02-06T05:46:24.549Z,9.60
2019-02-06T05:48:55.985Z,9.67
2019-02-06T05:51:26.540Z,9.90
2019-02-06T05:53:57.538Z,9.67
2019-02-06T05:56:28.260Z,9.47
2019-02-06T05:58:59.472Z,10.00
2019-02-06T06:01:30.388Z,9.90
2019-02-06T06:04:01.981Z,9.47
2019-02-06T06:06:32.876Z,10.50
2019-02-06T06:09:04.934Z,10.20
2019-02-06T06:11:36.289Z,10.37
2019-02-06T06:14:07.440Z,10.50
2019-02-06T06:16:37.768Z,9.13
2019-02-06T06:19:08.923Z,9.50
2019-02-06T06:21:39.261Z,9.97
2019-02-06T06:24:10.580Z,9.77
2019-02-06T06:26:41.226Z,10.00
2019-02-06T06:29:11.819Z,9.03
2019-02-06T06:31:42.438Z,10.47
2019-02-06T06:34:12.950Z,9.73
2019-02-06T06:36:43.737Z,9.97
2019-02-06T06:39:14.766Z,9.60
2019-02-06T06:41:45.750Z,10.13
2019-02-06T06:44:16.247Z,9.70
2019-02-06T06:46:47.585Z,9.67
2019-02-06T06:49:18.563Z,9.90
2019-02-06T06:51:49.171Z,9.37
2019-02-06T06:54:19.946Z,9.00
2019-02-06T06:56:50.794Z,10.27
2019-02-06T06:59:21.542Z,10.50
2019-02-06T07:01:52.130Z,10.03
2019-02-06T07:04:22.866Z,9.53
2019-02-06T07:06:53.633Z,8.90
2019-02-06T07:09:27.738Z,9.87
2019-02-06T07:11:58.724Z,8.93
2019-02-06T07:14:29.283Z,9.20
2019-02-06T07:17:01.094Z,9.70
2019-02-06T07:19:31.652Z,9.10
2019-02-06T07:22:02.577Z,9.40
2019-02-06T07:24:33.666Z,8.67
2019-02-06T07:27:04.271Z,8.40
2019-02-06T07:29:35.825Z,9.23
2019-02-06T07:32:06.511Z,10.33
2019-02-06T07:34:37.530Z,9.13
2019-02-06T07:37:08.099Z,9.93
2019-02-06T07:39:38.756Z,8.97
2019-02-06T07:42:10.691Z,8.00
2019-02-06T07:44:42.013Z,8.67
2019-02-06T07:47:13.693Z,8.43
2019-02-06T07:49:44.785Z,8.70
2019-02-06T07:52:15.176Z,8.70
2019-02-06T07:54:46.973Z,9.63
2019-02-06T07:57:17.547Z,9.73
2019-02-06T07:59:48.289Z,9.60
2019-02-06T08:02:19.021Z,8.90
2019-02-06T08:04:50.037Z,9.57
2019-02-06T08:07:21.747Z,10.00
2019-02-06T08:09:52.713Z,10.07
2019-02-06T08:12:23.467Z,9.33
2019-02-06T08:14:55.158Z,10.63
2019-02-06T08:17:25.936Z,10.70
2019-02-06T08:19:57.288Z,10.70
2019-02-06T08:22:28.097Z,11.10
2019-02-06T08:24:59.030Z,10.33
2019-02-06T08:27:30.383Z,10.70
2019-02-06T08:30:01.255Z,10.30
2019-02-06T08:32:31.794Z,11.17
2019-02-06T08:35:02.297Z,11.47
2019-02-06T08:37:33.199Z,10.50
2019-02-06T08:40:03.634Z,10.90
2019-02-06T08:42:34.351Z,12.13
2019-02-06T08:45:05.800Z,14.17
2019-02-06T08:47:36.430Z,18.57
2019-02-06T08:50:09.231Z,17.90
2019-02-06T08:52:42.989Z,25.43
2019-02-06T08:55:16.637Z,22.17
2019-02-06T08:57:47.695Z,21.83
2019-02-06T09:00:22.535Z,21.50
2019-02-06T09:02:53.588Z,21.80
2019-02-06T09:05:24.093Z,23.47
2019-02-06T09:07:54.519Z,22.43
2019-02-06T09:10:25.434Z,25.43
2019-02-06T09:12:56.537Z,24.43
2019-02-06T09:15:27.603Z,24.97
2019-02-06T09:17:58.570Z,27.20
2019-02-06T09:20:30.478Z,24.50
2019-02-06T09:23:01.842Z,26.50
2019-02-06T09:25:32.367Z,27.20
2019-02-06T09:28:03.800Z,28.67
2019-02-06T09:30:35.948Z,29.53
2019-02-06T09:33:08.865Z,33.30
2019-02-06T09:35:40.214Z,34.00
2019-02-06T09:38:10.711Z,35.40
2019-02-06T09:40:43.023Z,37.17
2019-02-06T09:43:13.618Z,37.63
2019-02-06T09:45:44.353Z,38.80
2019-02-06T09:48:15.540Z,40.27
2019-02-06T09:50:46.914Z,43.67
2019-02-06T09:53:18.175Z,40.50
2019-02-06T09:55:48.941Z,41.73
2019-02-06T09:58:20.227Z,41.30
2019-02-06T10:00:51.306Z,41.47
2019-02-06T10:03:22.094Z,42.10
2019-02-06T10:05:52.831Z,39.70
2019-02-06T10:08:24.102Z,38.63
2019-02-06T10:10:54.823Z,38.87
2019-02-06T10:13:26.222Z,40.10
2019-02-06T10:15:57.342Z,38.70
2019-02-06T10:18:28.078Z,38.97
2019-02-06T10:20:58.721Z,37.53
2019-02-06T10:23:29.209Z,35.20
2019-02-06T10:25:59.782Z,34.50
2019-02-06T10:28:30.539Z,33.20
2019-02-06T10:31:01.481Z,33.53
2019-02-06T10:33:32.010Z,33.13
2019-02-06T10:36:04.902Z,32.70
2019-02-06T10:38:36.321Z,30.83
2019-02-06T10:41:07.448Z,30.43
2019-02-06T10:43:37.841Z,28.67
2019-02-06T10:46:08.496Z,27.13
2019-02-06T10:48:39.159Z,27.47
2019-02-06T10:51:09.934Z,26.67
2019-02-06T10:53:41.356Z,27.53
2019-02-06T10:56:13.897Z,26.20
2019-02-06T10:58:44.666Z,25.80
2019-02-06T11:01:16.304Z,24.30
2019-02-06T11:03:47.149Z,22.73
2019-02-06T11:06:17.621Z,22.00
2019-02-06T11:08:49.354Z,23.60
2019-02-06T11:11:19.893Z,21.73
2019-02-06T11:13:50.224Z,21.17
2019-02-06T11:16:20.976Z,19.80
2019-02-06T11:18:51.437Z,20.87
2019-02-06T11:21:22.868Z,20.73
2019-02-06T11:23:53.827Z,21.30
2019-02-06T11:26:24.490Z,19.73
2019-02-06T11:29:52.710Z,18.83
2019-02-06T11:32:23.614Z,19.40
2019-02-06T11:34:55.480Z,19.47
2019-02-06T11:37:27.598Z,18.53
2019-02-06T11:39:58.459Z,16.67
2019-02-06T11:42:29.201Z,17.67
2019-02-06T11:45:00.526Z,17.37
2019-02-06T11:47:31.347Z,16.60
2019-02-06T11:50:03.364Z,15.37
2019-02-06T11:52:33.902Z,15.37
2019-02-06T11:55:05.100Z,14.80
2019-02-06T11:57:36.146Z,16.00
2019-02-06T12:00:11.018Z,14.97
2019-02-06T12:02:42.376Z,14.90
2019-02-06T12:05:14.058Z,15.97
2019-02-06T12:07:46.341Z,17.67
2019-02-06T12:10:18.630Z,13.13
2019-02-06T12:12:49.743Z,13.93
2019-02-06T12:15:20.788Z,13.47
2019-02-06T12:17:51.855Z,13.20
2019-02-06T12:20:23.473Z,11.57
2019-02-06T12:22:55.292Z,12.70
2019-02-06T12:25:26.144Z,14.00
2019-02-06T12:27:59.599Z,13.23
2019-02-06T12:30:33.382Z,13.53
2019-02-06T12:33:05.335Z,11.87
2019-02-06T12:35:37.457Z,12.93
2019-02-06T12:38:08.782Z,12.63
2019-02-06T12:40:40.256Z,11.70
2019-02-06T12:43:12.322Z,12.47
2019-02-06T12:45:44.085Z,12.60
2019-02-06T12:48:14.735Z,12.10
2019-02-06T12:50:45.890Z,13.07
2019-02-06T12:53:16.622Z,11.83
2019-02-06T12:55:48.678Z,13.13
2019-02-06T12:58:19.716Z,12.57
2019-02-06T13:00:50.389Z,12.27
2019-02-06T13:03:20.901Z,13.30
2019-02-06T13:05:52.128Z,12.43
2019-02-06T13:08:23.513Z,12.50
2019-02-06T13:10:53.917Z,13.30
2019-02-06T13:13:24.626Z,12.60
2019-02-06T13:15:55.029Z,12.83
2019-02-06T13:18:25.729Z,12.83
2019-02-06T13:20:56.477Z,12.97
2019-02-06T13:23:28.145Z,12.93
2019-02-06T13:25:59.547Z,12.93
2019-02-06T13:28:30.858Z,13.00
2019-02-06T13:31:01.724Z,12.40
2019-02-06T13:33:32.953Z,12.90
2019-02-06T13:36:06.734Z,12.70
2019-02-06T13:38:37.627Z,12.73
2019-02-06T13:41:09.486Z,12.37
2019-02-06T13:43:39.150Z,12.23
2019-02-06T13:46:10.306Z,13.53
2019-02-06T13:48:41.190Z,13.90
2019-02-06T13:51:16.532Z,14.10
2019-02-06T13:53:45.463Z,15.83
2019-02-06T13:56:16.343Z,14.63
2019-02-06T13:58:47.828Z,14.37
2019-02-06T14:01:25.356Z,15.80
2019-02-06T14:03:52.358Z,15.00
2019-02-06T14:06:24.231Z,14.40
2019-02-06T14:08:55.119Z,13.57
2019-02-06T14:11:26.523Z,14.60
2019-02-06T14:13:59.041Z,14.87
2019-02-06T14:16:30.293Z,14.87
2019-02-06T14:19:01.264Z,15.50
2019-02-06T14:21:32.022Z,15.67
2019-02-06T14:24:43.610Z,14.53
2019-02-06T14:27:27.316Z,14.63
2019-02-06T14:30:47.371Z,14.50
2019-02-06T14:34:00.493Z,14.73
2019-02-06T14:37:12.275Z,15.17
2019-02-06T14:40:01.515Z,14.40
2019-02-06T14:43:03.505Z,16.03
2019-02-06T14:46:13.900Z,15.57
2019-02-06T14:49:08.301Z,15.57
2019-02-06T14:52:12.935Z,16.87
2019-02-06T14:55:27.764Z,16.43
2019-02-06T14:58:46.247Z,16.00
2019-02-06T15:02:05.716Z,17.10
2019-02-06T15:05:12.561Z,16.07
2019-02-06T15:07:53.260Z,16.27
2019-02-06T15:11:19.680Z,15.77
2019-02-06T15:14:11.434Z,17.33
2019-02-06T15:17:18.827Z,17.27
2019-02-06T15:20:16.097Z,15.93
2019-02-06T15:23:33.105Z,17.40
2019-02-06T15:26:33.005Z,16.10
2019-02-06T15:29:35.619Z,17.60
2019-02-06T15:32:47.837Z,15.80
2019-02-06T15:35:57.775Z,16.33
2019-02-06T15:39:04.471Z,16.30
2019-02-06T15:42:07.929Z,16.23
2019-02-06T15:45:08.458Z,15.33
2019-02-06T15:47:56.632Z,17.63
2019-02-06T15:51:16.100Z,16.00
2019-02-06T15:54:31.531Z,15.67
2019-02-06T15:57:34.787Z,15.10
2019-02-06T16:00:48.152Z,13.73
2019-02-06T16:03:55.654Z,16.10
2019-02-06T16:06:55.818Z,14.10
2019-02-06T16:10:09.411Z,15.17
2019-02-06T16:13:05.214Z,15.90
2019-02-06T16:16:27.195Z,16.43
2019-02-06T16:19:19.857Z,15.70
2019-02-06T16:22:18.192Z,15.87
2019-02-06T16:25:30.006Z,14.60
2019-02-06T16:28:49.964Z,14.77
2019-02-06T16:31:46.100Z,16.00
2019-02-06T16:34:54.466Z,16.10
2019-02-06T16:37:51.253Z,17.30
2019-02-06T16:41:00.225Z,15.77
2019-02-06T16:44:03.148Z,16.87
2019-02-06T16:47:13.097Z,16.23
2019-02-06T16:50:37.535Z,15.63
2019-02-06T16:53:30.270Z,15.50
2019-02-06T16:56:48.380Z,16.10
2019-02-06T17:00:17.031Z,16.57
2019-02-06T17:03:17.661Z,16.93
2019-02-06T17:06:25.106Z,17.77
2019-02-06T17:09:42.866Z,17.40
2019-02-06T17:12:48.352Z,17.47
2019-02-06T17:15:55.241Z,16.57
2019-02-06T17:19:24.773Z,17.53
2019-02-06T17:22:47.158Z,18.90
2019-02-06T17:26:10.230Z,17.83
2019-02-06T17:29:21.814Z,16.97
2019-02-06T17:32:36.706Z,18.23
2019-02-06T17:35:27.383Z,19.43
2019-02-06T17:38:30.835Z,21.33
2019-02-06T17:41:29.221Z,18.57
2019-02-06T17:44:34.079Z,20.33
2019-02-06T17:47:48.950Z,18.70
2019-02-06T17:50:56.040Z,18.53
2019-02-06T17:53:50.734Z,19.07
2019-02-06T17:56:21.710Z,19.73
2019-02-06T17:58:53.233Z,20.53
2019-02-06T18:01:45.417Z,19.77
2019-02-06T18:04:35.199Z,18.27
2019-02-06T18:07:07.099Z,19.33
2019-02-06T18:09:40.177Z,20.47
2019-02-06T18:12:12.433Z,18.67
2019-02-06T18:14:43.363Z,18.47
2019-02-06T18:17:15.720Z,18.13
2019-02-06T18:19:48.757Z,19.10
2019-02-06T18:22:22.507Z,19.40
2019-02-06T18:24:54.680Z,19.50
2019-02-06T18:27:26.717Z,19.47
2019-02-06T18:29:58.838Z,18.70
2019-02-06T18:32:30.796Z,21.03
2019-02-06T18:35:03.390Z,19.83
2019-02-06T18:37:43.274Z,18.60
2019-02-06T18:40:16.451Z,18.33
2019-02-06T18:42:49.110Z,18.47
2019-02-06T18:45:20.512Z,20.60
2019-02-06T18:47:58.326Z,19.40
2019-02-06T18:50:31.328Z,19.90
2019-02-06T18:53:05.747Z,20.40
2019-02-06T18:55:38.152Z,18.73
2019-02-06T18:58:11.110Z,19.00
2019-02-06T19:00:43.610Z,19.37
2019-02-06T19:03:26.645Z,20.07
2019-02-06T19:05:58.214Z,20.87
2019-02-06T19:08:34.737Z,20.83
2019-02-06T19:11:06.868Z,19.70
2019-02-06T19:13:40.618Z,20.63
2019-02-06T19:16:12.347Z,21.10
2019-02-06T19:18:44.826Z,19.37
2019-02-06T19:21:18.015Z,21.90
2019-02-06T19:23:49.692Z,22.47
2019-02-06T19:26:23.649Z,21.67
2019-02-06T19:28:55.537Z,20.47
2019-02-06T19:31:29.383Z,21.77
2019-02-06T19:34:02.993Z,20.83
2019-02-06T19:36:35.250Z,22.30
2019-02-06T19:39:10.929Z,20.30
2019-02-06T19:41:42.423Z,21.83
2019-02-06T19:44:16.679Z,21.40
2019-02-06T19:46:49.991Z,21.30
2019-02-06T19:49:24.302Z,21.50
2019-02-06T19:51:56.670Z,22.37
2019-02-06T19:54:30.330Z,21.10
2019-02-06T19:57:03.668Z,22.03
2019-02-06T19:59:34.779Z,22.20
2019-02-06T20:02:06.261Z,23.23
2019-02-06T20:04:40.503Z,22.60
2019-02-06T20:07:12.039Z,23.77
2019-02-06T20:09:46.314Z,23.23
2019-02-06T20:12:19.012Z,23.83
2019-02-06T20:14:50.195Z,22.97
2019-02-06T20:17:21.358Z,24.57
2019-02-06T20:19:55.141Z,23.07
2019-02-06T20:22:26.691Z,23.17
2019-02-06T20:24:58.322Z,24.53
2019-02-06T20:27:30.013Z,24.63
2019-02-06T20:30:02.621Z,26.57
2019-02-06T20:32:38.205Z,27.50
2019-02-06T20:35:11.384Z,31.20
2019-02-06T20:37:44.001Z,30.57
2019-02-06T20:40:21.641Z,32.80
2019-02-06T20:42:54.072Z,31.97
2019-02-06T20:45:28.064Z,33.03
2019-02-06T20:48:00.998Z,34.33
2019-02-06T20:50:36.627Z,32.93
2019-02-06T20:53:08.023Z,34.63
2019-02-06T20:55:42.768Z,33.43
2019-02-06T20:58:14.100Z,32.67
2019-02-06T21:00:46.658Z,30.63
2019-02-06T21:03:22.398Z,31.57
2019-02-06T21:05:54.486Z,32.43
2019-02-06T21:08:25.542Z,35.10
2019-02-06T21:11:02.617Z,31.30
2019-02-06T21:13:33.708Z,34.93
2019-02-06T21:16:05.957Z,31.63
2019-02-06T21:18:39.813Z,32.23
2019-02-06T21:21:11.229Z,31.97
2019-02-06T21:23:42.554Z,31.47
2019-02-06T21:26:14.869Z,31.37
2019-02-06T21:28:46.560Z,31.60
2019-02-06T21:31:18.826Z,30.23
2019-02-06T21:33:51.598Z,31.20
2019-02-06T21:36:23.632Z,30.23
2019-02-06T21:38:55.518Z,29.30
2019-02-06T21:41:27.752Z,30.27
2019-02-06T21:43:59.110Z,31.90
2019-02-06T21:46:31.342Z,31.20
2019-02-06T21:49:02.147Z,28.07
2019-02-06T21:51:33.963Z,29.77
2019-02-06T21:54:05.432Z,28.30
2019-02-06T21:56:38.543Z,30.10
2019-02-06T21:59:11.953Z,29.27
2019-02-06T22:01:43.895Z,28.70
2019-02-06T22:04:17.417Z,29.03
2019-02-06T22:06:48.076Z,26.83
2019-02-06T22:09:18.314Z,27.90
2019-02-06T22:11:48.914Z,27.17
2019-02-06T22:14:20.618Z,28.93
2019-02-06T22:16:52.106Z,29.67
2019-02-06T22:19:23.241Z,27.70
2019-02-06T22:21:53.319Z,27.17
2019-02-06T22:24:24.144Z,28.33
2019-02-06T22:26:55.192Z,27.77
2019-02-06T22:29:26.661Z,27.60
2019-02-06T22:31:58.516Z,27.77
2019-02-06T22:34:29.400Z,25.60
2019-02-06T22:36:59.923Z,26.40
2019-02-06T22:39:31.118Z,29.73
2019-02-06T22:42:02.042Z,28.60
2019-02-06T22:44:32.695Z,24.80
2019-02-06T22:47:03.505Z,27.53
2019-02-06T22:49:34.321Z,28.80
2019-02-06T22:52:05.272Z,27.77
2019-02-06T22:54:35.988Z,24.23
2019-02-06T22:57:06.676Z,25.50
2019-02-06T22:59:37.655Z,23.43
2019-02-06T23:02:08.207Z,25.70
2019-02-06T23:04:39.971Z,25.77
2019-02-06T23:07:11.712Z,26.27
2019-02-06T23:09:42.380Z,26.07
2019-02-06T23:12:13.534Z,25.60
2019-02-06T23:14:44.921Z,24.13
2019-02-06T23:17:15.430Z,23.60
2019-02-06T23:19:46.036Z,24.03
2019-02-06T23:22:17.073Z,23.23
2019-02-06T23:24:48.225Z,25.17
2019-02-06T23:27:19.284Z,23.37
2019-02-06T23:29:49.903Z,24.83
2019-02-06T23:32:20.576Z,23.90
2019-02-06T23:34:51.091Z,24.83
2019-02-06T23:37:22.318Z,26.20
2019-02-06T23:39:53.099Z,25.00
2019-02-06T23:42:25.356Z,27.80
2019-02-06T23:45:13.262Z,25.13
2019-02-06T23:47:45.097Z,28.40
2019-02-06T23:50:15.893Z,26.37
2019-02-06T23:52:47.339Z,24.80
2019-02-06T23:55:19.226Z,27.63
2019-02-06T23:57:51.220Z,25.33
